sensor_id;sensor_type;location;lat;lon;timestamp;P1;durP1;ratioP1;P2;durP2;ratioP2
10134;SDS011;5107;48.850;8.924;2022-12-18T00:00:59;32.70;;;14.37;;
10134;SDS011;5107;48.850;8.924;2022-12-18T00:03:31;28.73;;;12.67;;
10134;SDS011;5107;48.850;8.924;2022-12-18T00:05:59;30.33;;;12.63;;
10134;SDS011;5107;48.850;8.924;2022-12-18T00:08:26;28.03;;;12.40;;
10134;SDS011;5107;48.850;8.924;2022-12-18T00:10:53;25.73;;;11.87;;
10134;SDS011;5107;48.850;8.924;2022-12-18T00:13:20;27.97;;;13.50;;
10134;SDS011;5107;48.850;8.924;2022-12-18T00:15:48;27.23;;;12.50;;
10134;SDS011;5107;48.850;8.924;2022-12-18T00:18:16;28.20;;;13.27;;
10134;SDS011;5107;48.850;8.924;2022-12-18T00:20:43;28.33;;;14.57;;
10134;SDS011;5107;48.850;8.924;2022-12-18T00:23:10;29.73;;;13.53;;
10134;SDS011;5107;48.850;8.924;2022-12-18T00:25:37;29.87;;;13.70;;
10134;SDS011;5107;48.850;8.924;2022-12-18T00:28:04;33.77;;;13.37;;
10134;SDS011;5107;48.850;8.924;2022-12-18T00:30:31;27.47;;;13.77;;
10134;SDS011;5107;48.850;8.924;2022-12-18T00:32:58;22.13;;;12.07;;
10134;SDS011;5107;48.850;8.924;2022-12-18T00:35:27;29.60;;;13.10;;
10134;SDS011;5107;48.850;8.924;2022-12-18T00:37:54;28.13;;;12.97;;
10134;SDS011;5107;48.850;8.924;2022-12-18T00:40:22;26.70;;;12.00;;
10134;SDS011;5107;48.850;8.924;2022-12-18T00:42:49;27.17;;;12.97;;
10134;SDS011;5107;48.850;8.924;2022-12-18T00:45:21;27.93;;;12.53;;
10134;SDS011;5107;48.850;8.924;2022-12-18T00:47:49;31.23;;;13.07;;
10134;SDS011;5107;48.850;8.924;2022-12-18T00:50:16;31.80;;;12.03;;
10134;SDS011;5107;48.850;8.924;2022-12-18T00:52:44;29.43;;;12.73;;
10134;SDS011;5107;48.850;8.924;2022-12-18T00:55:12;26.07;;;12.83;;
10134;SDS011;5107;48.850;8.924;2022-12-18T00:57:40;33.23;;;13.87;;
10134;SDS011;5107;48.850;8.924;2022-12-18T01:00:08;29.33;;;13.93;;
10134;SDS011;5107;48.850;8.924;2022-12-18T01:02:38;30.30;;;13.80;;
10134;SDS011;5107;48.850;8.924;2022-12-18T01:05:06;29.03;;;13.80;;
10134;SDS011;5107;48.850;8.924;2022-12-18T01:07:34;26.20;;;12.87;;
10134;SDS011;5107;48.850;8.924;2022-12-18T01:10:03;26.70;;;13.20;;
10134;SDS011;5107;48.850;8.924;2022-12-18T01:12:34;24.97;;;12.67;;
10134;SDS011;5107;48.850;8.924;2022-12-18T01:15:02;32.30;;;13.97;;
10134;SDS011;5107;48.850;8.924;2022-12-18T01:17:31;24.87;;;12.50;;
10134;SDS011;5107;48.850;8.924;2022-12-18T01:19:59;28.37;;;13.07;;
10134;SDS011;5107;48.850;8.924;2022-12-18T01:22:26;23.90;;;12.27;;
10134;SDS011;5107;48.850;8.924;2022-12-18T01:24:53;34.33;;;12.60;;
10134;SDS011;5107;48.850;8.924;2022-12-18T01:27:23;28.33;;;12.83;;
10134;SDS011;5107;48.850;8.924;2022-12-18T01:29:50;29.20;;;12.17;;
10134;SDS011;5107;48.850;8.924;2022-12-18T01:32:18;32.97;;;11.97;;
10134;SDS011;5107;48.850;8.924;2022-12-18T01:34:45;25.60;;;10.93;;
10134;SDS011;5107;48.850;8.924;2022-12-18T01:37:12;31.73;;;14.10;;
10134;SDS011;5107;48.850;8.924;2022-12-18T01:39:39;28.73;;;12.53;;
10134;SDS011;5107;48.850;8.924;2022-12-18T01:42:09;29.67;;;12.77;;
10134;SDS011;5107;48.850;8.924;2022-12-18T01:44:57;27.73;;;12.40;;
10134;SDS011;5107;48.850;8.924;2022-12-18T01:47:32;27.10;;;13.10;;
10134;SDS011;5107;48.850;8.924;2022-12-18T01:50:05;29.40;;;13.47;;
10134;SDS011;5107;48.850;8.924;2022-12-18T01:52:36;28.27;;;12.67;;
10134;SDS011;5107;48.850;8.924;2022-12-18T01:55:05;32.10;;;13.83;;
10134;SDS011;5107;48.850;8.924;2022-12-18T01:57:34;23.43;;;12.13;;
10134;SDS011;5107;48.850;8.924;2022-12-18T02:00:04;26.03;;;11.47;;
10134;SDS011;5107;48.850;8.924;2022-12-18T02:02:41;28.83;;;12.80;;
10134;SDS011;5107;48.850;8.924;2022-12-18T02:05:12;25.90;;;12.10;;
10134;SDS011;5107;48.850;8.924;2022-12-18T02:07:46;29.50;;;13.87;;
10134;SDS011;5107;48.850;8.924;2022-12-18T02:10:27;28.27;;;11.37;;
10134;SDS011;5107;48.850;8.924;2022-12-18T02:12:59;26.87;;;12.97;;
10134;SDS011;5107;48.850;8.924;2022-12-18T02:15:39;21.57;;;10.90;;
10134;SDS011;5107;48.850;8.924;2022-12-18T02:18:17;29.50;;;11.43;;
10134;SDS011;5107;48.850;8.924;2022-12-18T02:20:48;35.93;;;14.27;;
10134;SDS011;5107;48.850;8.924;2022-12-18T02:23:24;33.40;;;14.87;;
10134;SDS011;5107;48.850;8.924;2022-12-18T02:26:18;30.13;;;12.70;;
10134;SDS011;5107;48.850;8.924;2022-12-18T02:28:51;29.80;;;13.33;;
10134;SDS011;5107;48.850;8.924;2022-12-18T02:31:25;27.80;;;11.10;;
10134;SDS011;5107;48.850;8.924;2022-12-18T02:33:58;39.00;;;14.63;;
10134;SDS011;5107;48.850;8.924;2022-12-18T02:36:33;26.27;;;12.00;;
10134;SDS011;5107;48.850;8.924;2022-12-18T02:39:05;27.63;;;11.17;;
10134;SDS011;5107;48.850;8.924;2022-12-18T02:41:42;27.57;;;12.67;;
10134;SDS011;5107;48.850;8.924;2022-12-18T02:44:11;26.47;;;12.90;;
10134;SDS011;5107;48.850;8.924;2022-12-18T02:46:42;31.37;;;13.60;;
10134;SDS011;5107;48.850;8.924;2022-12-18T02:49:19;27.93;;;12.70;;
10134;SDS011;5107;48.850;8.924;2022-12-18T02:52:01;26.00;;;11.97;;
10134;SDS011;5107;48.850;8.924;2022-12-18T02:54:42;24.57;;;11.77;;
10134;SDS011;5107;48.850;8.924;2022-12-18T02:57:27;28.90;;;12.10;;
10134;SDS011;5107;48.850;8.924;2022-12-18T03:00:04;26.40;;;11.73;;
10134;SDS011;5107;48.850;8.924;2022-12-18T03:02:38;27.30;;;11.67;;
10134;SDS011;5107;48.850;8.924;2022-12-18T03:05:12;24.10;;;11.03;;
10134;SDS011;5107;48.850;8.924;2022-12-18T03:07:45;27.23;;;12.33;;
10134;SDS011;5107;48.850;8.924;2022-12-18T03:10:19;23.60;;;10.83;;
10134;SDS011;5107;48.850;8.924;2022-12-18T03:12:56;30.90;;;12.33;;
10134;SDS011;5107;48.850;8.924;2022-12-18T03:15:30;27.47;;;12.13;;
10134;SDS011;5107;48.850;8.924;2022-12-18T03:18:08;20.10;;;10.93;;
10134;SDS011;5107;48.850;8.924;2022-12-18T03:20:42;31.90;;;12.50;;
10134;SDS011;5107;48.850;8.924;2022-12-18T03:23:15;25.07;;;10.80;;
10134;SDS011;5107;48.850;8.924;2022-12-18T03:25:48;23.37;;;9.87;;
10134;SDS011;5107;48.850;8.924;2022-12-18T03:28:25;22.83;;;11.13;;
10134;SDS011;5107;48.850;8.924;2022-12-18T03:30:59;34.73;;;9.53;;
10134;SDS011;5107;48.850;8.924;2022-12-18T03:33:29;24.00;;;10.33;;
10134;SDS011;5107;48.850;8.924;2022-12-18T03:36:03;22.20;;;10.47;;
10134;SDS011;5107;48.850;8.924;2022-12-18T03:38:32;23.03;;;10.00;;
10134;SDS011;5107;48.850;8.924;2022-12-18T03:40:59;21.03;;;10.30;;
10134;SDS011;5107;48.850;8.924;2022-12-18T03:43:54;27.73;;;10.77;;
10134;SDS011;5107;48.850;8.924;2022-12-18T03:46:37;24.47;;;11.63;;
10134;SDS011;5107;48.850;8.924;2022-12-18T03:49:15;26.10;;;12.63;;
10134;SDS011;5107;48.850;8.924;2022-12-18T03:51:56;27.23;;;12.03;;
10134;SDS011;5107;48.850;8.924;2022-12-18T03:54:29;26.67;;;12.50;;
10134;SDS011;5107;48.850;8.924;2022-12-18T03:57:07;22.10;;;10.10;;
10134;SDS011;5107;48.850;8.924;2022-12-18T03:59:41;29.27;;;13.43;;
10134;SDS011;5107;48.850;8.924;2022-12-18T04:02:12;25.87;;;11.33;;
10134;SDS011;5107;48.850;8.924;2022-12-18T04:04:42;21.47;;;10.87;;
10134;SDS011;5107;48.850;8.924;2022-12-18T04:07:11;19.93;;;9.30;;
10134;SDS011;5107;48.850;8.924;2022-12-18T04:09:42;30.03;;;12.20;;
10134;SDS011;5107;48.850;8.924;2022-12-18T04:12:12;24.37;;;10.77;;
10134;SDS011;5107;48.850;8.924;2022-12-18T04:14:41;26.17;;;13.20;;
10134;SDS011;5107;48.850;8.924;2022-12-18T04:17:09;28.73;;;14.83;;
10134;SDS011;5107;48.850;8.924;2022-12-18T04:19:36;33.00;;;14.67;;
10134;SDS011;5107;48.850;8.924;2022-12-18T04:22:03;33.50;;;15.57;;
10134;SDS011;5107;48.850;8.924;2022-12-18T04:24:36;32.27;;;15.30;;
10134;SDS011;5107;48.850;8.924;2022-12-18T04:27:11;36.10;;;16.23;;
10134;SDS011;5107;48.850;8.924;2022-12-18T04:29:43;26.70;;;11.97;;
10134;SDS011;5107;48.850;8.924;2022-12-18T04:32:11;25.13;;;11.83;;
10134;SDS011;5107;48.850;8.924;2022-12-18T04:34:40;26.00;;;11.67;;
10134;SDS011;5107;48.850;8.924;2022-12-18T04:37:07;17.87;;;9.27;;
10134;SDS011;5107;48.850;8.924;2022-12-18T04:39:34;22.73;;;9.73;;
10134;SDS011;5107;48.850;8.924;2022-12-18T04:42:07;24.70;;;11.37;;
10134;SDS011;5107;48.850;8.924;2022-12-18T04:44:34;24.70;;;11.43;;
10134;SDS011;5107;48.850;8.924;2022-12-18T04:47:03;27.02;;;11.45;;
10134;SDS011;5107;48.850;8.924;2022-12-18T04:49:30;22.03;;;9.37;;
10134;SDS011;5107;48.850;8.924;2022-12-18T04:51:57;20.73;;;8.70;;
10134;SDS011;5107;48.850;8.924;2022-12-18T04:54:24;11.63;;;6.93;;
10134;SDS011;5107;48.850;8.924;2022-12-18T04:56:51;19.23;;;9.67;;
10134;SDS011;5107;48.850;8.924;2022-12-18T04:59:18;18.27;;;6.83;;
10134;SDS011;5107;48.850;8.924;2022-12-18T05:01:45;14.93;;;7.97;;
10134;SDS011;5107;48.850;8.924;2022-12-18T05:04:14;21.90;;;8.80;;
10134;SDS011;5107;48.850;8.924;2022-12-18T05:06:41;23.77;;;10.77;;
10134;SDS011;5107;48.850;8.924;2022-12-18T05:09:08;16.37;;;7.17;;
10134;SDS011;5107;48.850;8.924;2022-12-18T05:11:35;12.10;;;6.43;;
10134;SDS011;5107;48.850;8.924;2022-12-18T05:14:02;20.93;;;9.77;;
10134;SDS011;5107;48.850;8.924;2022-12-18T05:16:29;27.03;;;9.87;;
10134;SDS011;5107;48.850;8.924;2022-12-18T05:18:56;15.77;;;8.20;;
10134;SDS011;5107;48.850;8.924;2022-12-18T05:21:25;18.53;;;7.77;;
10134;SDS011;5107;48.850;8.924;2022-12-18T05:23:52;19.50;;;8.20;;
10134;SDS011;5107;48.850;8.924;2022-12-18T05:26:19;15.20;;;8.30;;
10134;SDS011;5107;48.850;8.924;2022-12-18T05:28:46;26.60;;;9.43;;
10134;SDS011;5107;48.850;8.924;2022-12-18T05:31:13;21.90;;;9.13;;
10134;SDS011;5107;48.850;8.924;2022-12-18T05:33:40;26.70;;;10.00;;
10134;SDS011;5107;48.850;8.924;2022-12-18T05:36:07;15.30;;;6.60;;
10134;SDS011;5107;48.850;8.924;2022-12-18T05:38:37;18.63;;;9.10;;
10134;SDS011;5107;48.850;8.924;2022-12-18T05:41:05;20.63;;;9.20;;
10134;SDS011;5107;48.850;8.924;2022-12-18T05:43:33;19.20;;;8.30;;
10134;SDS011;5107;48.850;8.924;2022-12-18T05:46:03;17.13;;;8.93;;
10134;SDS011;5107;48.850;8.924;2022-12-18T05:48:31;20.20;;;8.23;;
10134;SDS011;5107;48.850;8.924;2022-12-18T05:51:03;22.33;;;8.70;;
10134;SDS011;5107;48.850;8.924;2022-12-18T05:53:32;18.23;;;8.73;;
10134;SDS011;5107;48.850;8.924;2022-12-18T05:56:01;21.13;;;8.80;;
10134;SDS011;5107;48.850;8.924;2022-12-18T05:58:30;26.43;;;10.67;;
10134;SDS011;5107;48.850;8.924;2022-12-18T06:01:05;23.43;;;9.87;;
10134;SDS011;5107;48.850;8.924;2022-12-18T06:03:34;25.07;;;9.67;;
10134;SDS011;5107;48.850;8.924;2022-12-18T06:06:02;27.97;;;10.80;;
10134;SDS011;5107;48.850;8.924;2022-12-18T06:08:29;25.83;;;8.97;;
10134;SDS011;5107;48.850;8.924;2022-12-18T06:10:56;29.27;;;10.93;;
10134;SDS011;5107;48.850;8.924;2022-12-18T06:13:27;20.37;;;9.33;;
10134;SDS011;5107;48.850;8.924;2022-12-18T06:15:54;29.87;;;11.80;;
10134;SDS011;5107;48.850;8.924;2022-12-18T06:18:21;31.80;;;11.43;;
10134;SDS011;5107;48.850;8.924;2022-12-18T06:20:53;34.83;;;12.97;;
10134;SDS011;5107;48.850;8.924;2022-12-18T06:23:22;26.60;;;10.37;;
10134;SDS011;5107;48.850;8.924;2022-12-18T06:25:49;29.13;;;10.40;;
10134;SDS011;5107;48.850;8.924;2022-12-18T06:28:16;25.57;;;9.10;;
10134;SDS011;5107;48.850;8.924;2022-12-18T06:30:44;26.33;;;10.53;;
10134;SDS011;5107;48.850;8.924;2022-12-18T06:33:13;28.57;;;11.93;;
10134;SDS011;5107;48.850;8.924;2022-12-18T06:35:40;28.03;;;10.93;;
10134;SDS011;5107;48.850;8.924;2022-12-18T06:38:08;31.43;;;11.53;;
10134;SDS011;5107;48.850;8.924;2022-12-18T06:40:36;31.23;;;11.47;;
10134;SDS011;5107;48.850;8.924;2022-12-18T06:43:04;29.97;;;10.60;;
10134;SDS011;5107;48.850;8.924;2022-12-18T06:45:32;34.60;;;11.37;;
10134;SDS011;5107;48.850;8.924;2022-12-18T06:48:00;27.47;;;12.33;;
10134;SDS011;5107;48.850;8.924;2022-12-18T06:50:27;33.57;;;12.57;;
10134;SDS011;5107;48.850;8.924;2022-12-18T06:52:54;40.47;;;12.47;;
10134;SDS011;5107;48.850;8.924;2022-12-18T06:55:21;32.63;;;12.23;;
10134;SDS011;5107;48.850;8.924;2022-12-18T06:57:48;26.63;;;11.93;;
10134;SDS011;5107;48.850;8.924;2022-12-18T07:00:15;31.47;;;11.43;;
10134;SDS011;5107;48.850;8.924;2022-12-18T07:02:43;29.87;;;11.60;;
10134;SDS011;5107;48.850;8.924;2022-12-18T07:05:12;38.40;;;13.13;;
10134;SDS011;5107;48.850;8.924;2022-12-18T07:07:38;29.80;;;10.20;;
10134;SDS011;5107;48.850;8.924;2022-12-18T07:10:06;28.77;;;11.53;;
10134;SDS011;5107;48.850;8.924;2022-12-18T07:12:33;29.47;;;11.17;;
10134;SDS011;5107;48.850;8.924;2022-12-18T07:15:00;33.00;;;11.20;;
10134;SDS011;5107;48.850;8.924;2022-12-18T07:17:28;32.23;;;12.97;;
10134;SDS011;5107;48.850;8.924;2022-12-18T07:19:55;28.13;;;11.97;;
10134;SDS011;5107;48.850;8.924;2022-12-18T07:22:23;30.50;;;11.23;;
10134;SDS011;5107;48.850;8.924;2022-12-18T07:24:52;28.73;;;10.60;;
10134;SDS011;5107;48.850;8.924;2022-12-18T07:27:19;29.03;;;12.50;;
10134;SDS011;5107;48.850;8.924;2022-12-18T07:29:46;26.50;;;11.27;;
10134;SDS011;5107;48.850;8.924;2022-12-18T07:32:13;27.17;;;11.77;;
10134;SDS011;5107;48.850;8.924;2022-12-18T07:34:40;39.73;;;13.83;;
10134;SDS011;5107;48.850;8.924;2022-12-18T07:37:07;29.50;;;11.03;;
10134;SDS011;5107;48.850;8.924;2022-12-18T07:39:36;31.13;;;11.80;;
10134;SDS011;5107;48.850;8.924;2022-12-18T07:42:03;27.30;;;11.53;;
10134;SDS011;5107;48.850;8.924;2022-12-18T07:44:48;29.03;;;11.93;;
10134;SDS011;5107;48.850;8.924;2022-12-18T07:47:15;33.80;;;12.90;;
10134;SDS011;5107;48.850;8.924;2022-12-18T07:49:42;29.97;;;12.33;;
10134;SDS011;5107;48.850;8.924;2022-12-18T07:52:09;31.57;;;13.63;;
10134;SDS011;5107;48.850;8.924;2022-12-18T07:54:38;30.57;;;13.00;;
10134;SDS011;5107;48.850;8.924;2022-12-18T07:57:06;46.47;;;19.37;;
10134;SDS011;5107;48.850;8.924;2022-12-18T07:59:33;45.20;;;20.60;;
10134;SDS011;5107;48.850;8.924;2022-12-18T08:02:01;49.07;;;21.67;;
10134;SDS011;5107;48.850;8.924;2022-12-18T08:04:28;42.77;;;18.33;;
10134;SDS011;5107;48.850;8.924;2022-12-18T08:06:55;33.37;;;16.63;;
10134;SDS011;5107;48.850;8.924;2022-12-18T08:09:23;36.57;;;17.00;;
10134;SDS011;5107;48.850;8.924;2022-12-18T08:11:51;27.13;;;13.87;;
10134;SDS011;5107;48.850;8.924;2022-12-18T08:14:18;28.07;;;13.30;;
10134;SDS011;5107;48.850;8.924;2022-12-18T08:16:45;28.40;;;13.60;;
10134;SDS011;5107;48.850;8.924;2022-12-18T08:19:12;32.10;;;14.30;;
10134;SDS011;5107;48.850;8.924;2022-12-18T08:21:39;25.37;;;11.03;;
10134;SDS011;5107;48.850;8.924;2022-12-18T08:24:08;29.00;;;13.10;;
10134;SDS011;5107;48.850;8.924;2022-12-18T08:26:36;29.67;;;12.93;;
10134;SDS011;5107;48.850;8.924;2022-12-18T08:29:04;26.33;;;12.43;;
10134;SDS011;5107;48.850;8.924;2022-12-18T08:31:31;31.43;;;12.33;;
10134;SDS011;5107;48.850;8.924;2022-12-18T08:33:59;27.60;;;12.77;;
10134;SDS011;5107;48.850;8.924;2022-12-18T08:36:26;23.53;;;10.70;;
10134;SDS011;5107;48.850;8.924;2022-12-18T08:38:53;28.20;;;12.63;;
10134;SDS011;5107;48.850;8.924;2022-12-18T08:41:20;25.30;;;11.27;;
10134;SDS011;5107;48.850;8.924;2022-12-18T08:43:48;35.87;;;15.43;;
10134;SDS011;5107;48.850;8.924;2022-12-18T08:46:34;30.03;;;12.67;;
10134;SDS011;5107;48.850;8.924;2022-12-18T08:49:03;24.47;;;10.90;;
10134;SDS011;5107;48.850;8.924;2022-12-18T08:51:31;30.10;;;13.70;;
10134;SDS011;5107;48.850;8.924;2022-12-18T08:53:59;22.90;;;10.80;;
10134;SDS011;5107;48.850;8.924;2022-12-18T08:56:26;26.90;;;11.83;;
10134;SDS011;5107;48.850;8.924;2022-12-18T08:58:53;29.13;;;12.30;;
10134;SDS011;5107;48.850;8.924;2022-12-18T09:01:21;24.33;;;11.93;;
10134;SDS011;5107;48.850;8.924;2022-12-18T09:03:50;28.10;;;12.93;;
10134;SDS011;5107;48.850;8.924;2022-12-18T09:06:18;23.37;;;10.83;;
10134;SDS011;5107;48.850;8.924;2022-12-18T09:08:46;30.43;;;13.10;;
10134;SDS011;5107;48.850;8.924;2022-12-18T09:11:14;23.70;;;11.43;;
10134;SDS011;5107;48.850;8.924;2022-12-18T09:13:46;22.47;;;11.90;;
10134;SDS011;5107;48.850;8.924;2022-12-18T09:16:13;33.07;;;13.23;;
10134;SDS011;5107;48.850;8.924;2022-12-18T09:18:40;20.33;;;10.67;;
10134;SDS011;5107;48.850;8.924;2022-12-18T09:21:09;28.60;;;12.60;;
10134;SDS011;5107;48.850;8.924;2022-12-18T09:23:38;24.93;;;12.43;;
10134;SDS011;5107;48.850;8.924;2022-12-18T09:26:05;27.33;;;12.23;;
10134;SDS011;5107;48.850;8.924;2022-12-18T09:28:32;23.80;;;11.27;;
10134;SDS011;5107;48.850;8.924;2022-12-18T09:31:03;26.93;;;12.23;;
10134;SDS011;5107;48.850;8.924;2022-12-18T09:33:32;24.33;;;11.33;;
10134;SDS011;5107;48.850;8.924;2022-12-18T09:36:00;23.03;;;10.93;;
10134;SDS011;5107;48.850;8.924;2022-12-18T09:38:30;29.93;;;11.30;;
10134;SDS011;5107;48.850;8.924;2022-12-18T09:40:59;29.20;;;11.30;;
10134;SDS011;5107;48.850;8.924;2022-12-18T09:43:34;25.10;;;12.60;;
10134;SDS011;5107;48.850;8.924;2022-12-18T09:46:10;28.33;;;11.37;;
10134;SDS011;5107;48.850;8.924;2022-12-18T09:48:46;24.10;;;11.20;;
10134;SDS011;5107;48.850;8.924;2022-12-18T09:51:18;32.20;;;13.30;;
10134;SDS011;5107;48.850;8.924;2022-12-18T09:53:52;25.10;;;10.63;;
10134;SDS011;5107;48.850;8.924;2022-12-18T09:56:24;24.33;;;11.13;;
10134;SDS011;5107;48.850;8.924;2022-12-18T09:58:58;26.17;;;11.17;;
10134;SDS011;5107;48.850;8.924;2022-12-18T10:01:27;28.93;;;11.40;;
10134;SDS011;5107;48.850;8.924;2022-12-18T10:03:56;29.13;;;13.30;;
10134;SDS011;5107;48.850;8.924;2022-12-18T10:06:24;27.57;;;11.47;;
10134;SDS011;5107;48.850;8.924;2022-12-18T10:09:00;26.53;;;11.40;;
10134;SDS011;5107;48.850;8.924;2022-12-18T10:11:38;27.57;;;11.60;;
10134;SDS011;5107;48.850;8.924;2022-12-18T10:14:14;25.53;;;10.90;;
10134;SDS011;5107;48.850;8.924;2022-12-18T10:16:53;30.53;;;12.70;;
10134;SDS011;5107;48.850;8.924;2022-12-18T10:19:34;23.70;;;11.37;;
10134;SDS011;5107;48.850;8.924;2022-12-18T10:22:11;26.07;;;11.27;;
10134;SDS011;5107;48.850;8.924;2022-12-18T10:24:52;22.63;;;11.17;;
10134;SDS011;5107;48.850;8.924;2022-12-18T10:27:26;29.13;;;11.97;;
10134;SDS011;5107;48.850;8.924;2022-12-18T10:29:54;26.07;;;12.03;;
10134;SDS011;5107;48.850;8.924;2022-12-18T10:32:22;25.17;;;12.00;;
10134;SDS011;5107;48.850;8.924;2022-12-18T10:34:52;27.87;;;11.90;;
10134;SDS011;5107;48.850;8.924;2022-12-18T10:37:21;26.40;;;12.57;;
10134;SDS011;5107;48.850;8.924;2022-12-18T10:40:07;26.77;;;13.23;;
10134;SDS011;5107;48.850;8.924;2022-12-18T10:42:37;27.23;;;12.27;;
10134;SDS011;5107;48.850;8.924;2022-12-18T10:45:09;22.50;;;11.80;;
10134;SDS011;5107;48.850;8.924;2022-12-18T10:47:41;24.37;;;11.40;;
10134;SDS011;5107;48.850;8.924;2022-12-18T10:53:00;26.33;;;11.97;;
10134;SDS011;5107;48.850;8.924;2022-12-18T10:55:32;25.03;;;11.43;;
10134;SDS011;5107;48.850;8.924;2022-12-18T10:58:13;25.80;;;11.63;;
10134;SDS011;5107;48.850;8.924;2022-12-18T11:01:01;23.43;;;11.33;;
10134;SDS011;5107;48.850;8.924;2022-12-18T11:03:36;26.53;;;12.20;;
10134;SDS011;5107;48.850;8.924;2022-12-18T11:06:06;22.03;;;10.63;;
10134;SDS011;5107;48.850;8.924;2022-12-18T11:08:37;29.43;;;12.67;;
10134;SDS011;5107;48.850;8.924;2022-12-18T11:11:15;30.27;;;14.10;;
10134;SDS011;5107;48.850;8.924;2022-12-18T11:13:52;24.70;;;11.23;;
10134;SDS011;5107;48.850;8.924;2022-12-18T11:16:26;24.53;;;11.40;;
10134;SDS011;5107;48.850;8.924;2022-12-18T11:18:59;28.17;;;13.00;;
10134;SDS011;5107;48.850;8.924;2022-12-18T11:21:50;27.33;;;11.90;;
10134;SDS011;5107;48.850;8.924;2022-12-18T11:24:19;33.23;;;13.33;;
10134;SDS011;5107;48.850;8.924;2022-12-18T11:26:53;27.10;;;12.03;;
10134;SDS011;5107;48.850;8.924;2022-12-18T11:29:23;29.37;;;13.47;;
10134;SDS011;5107;48.850;8.924;2022-12-18T11:32:12;29.07;;;13.37;;
10134;SDS011;5107;48.850;8.924;2022-12-18T11:34:59;27.27;;;12.63;;
10134;SDS011;5107;48.850;8.924;2022-12-18T11:37:36;28.37;;;12.43;;
10134;SDS011;5107;48.850;8.924;2022-12-18T11:40:09;32.17;;;13.97;;
10134;SDS011;5107;48.850;8.924;2022-12-18T11:42:44;32.20;;;13.63;;
10134;SDS011;5107;48.850;8.924;2022-12-18T11:45:24;29.03;;;13.10;;
10134;SDS011;5107;48.850;8.924;2022-12-18T11:47:56;24.50;;;11.97;;
10134;SDS011;5107;48.850;8.924;2022-12-18T11:50:30;59.00;;;23.67;;
10134;SDS011;5107;48.850;8.924;2022-12-18T11:53:09;27.17;;;13.43;;
10134;SDS011;5107;48.850;8.924;2022-12-18T11:55:39;25.90;;;11.77;;
10134;SDS011;5107;48.850;8.924;2022-12-18T11:58:19;32.57;;;12.83;;
10134;SDS011;5107;48.850;8.924;2022-12-18T12:01:04;29.67;;;12.87;;
10134;SDS011;5107;48.850;8.924;2022-12-18T12:03:51;28.67;;;13.17;;
10134;SDS011;5107;48.850;8.924;2022-12-18T12:06:49;33.17;;;14.30;;
10134;SDS011;5107;48.850;8.924;2022-12-18T12:09:29;30.80;;;12.43;;
10134;SDS011;5107;48.850;8.924;2022-12-18T12:12:11;33.10;;;14.57;;
10134;SDS011;5107;48.850;8.924;2022-12-18T12:14:56;31.70;;;13.47;;
10134;SDS011;5107;48.850;8.924;2022-12-18T12:17:33;32.57;;;12.80;;
10134;SDS011;5107;48.850;8.924;2022-12-18T12:20:11;29.83;;;13.20;;
10134;SDS011;5107;48.850;8.924;2022-12-18T12:22:47;28.17;;;13.17;;
10134;SDS011;5107;48.850;8.924;2022-12-18T12:25:28;31.57;;;14.00;;
10134;SDS011;5107;48.850;8.924;2022-12-18T12:28:12;29.00;;;13.10;;
10134;SDS011;5107;48.850;8.924;2022-12-18T12:31:10;29.50;;;13.10;;
10134;SDS011;5107;48.850;8.924;2022-12-18T12:33:49;33.20;;;13.03;;
10134;SDS011;5107;48.850;8.924;2022-12-18T12:36:30;30.20;;;13.17;;
10134;SDS011;5107;48.850;8.924;2022-12-18T12:39:06;30.10;;;12.70;;
10134;SDS011;5107;48.850;8.924;2022-12-18T12:41:38;30.43;;;12.77;;
10134;SDS011;5107;48.850;8.924;2022-12-18T12:44:35;25.63;;;12.53;;
10134;SDS011;5107;48.850;8.924;2022-12-18T12:47:11;27.73;;;11.83;;
10134;SDS011;5107;48.850;8.924;2022-12-18T12:49:43;36.33;;;15.03;;
10134;SDS011;5107;48.850;8.924;2022-12-18T12:52:14;30.73;;;14.17;;
10134;SDS011;5107;48.850;8.924;2022-12-18T12:54:47;31.53;;;13.43;;
10134;SDS011;5107;48.850;8.924;2022-12-18T12:57:17;30.77;;;13.50;;
10134;SDS011;5107;48.850;8.924;2022-12-18T12:59:50;28.37;;;12.30;;
10134;SDS011;5107;48.850;8.924;2022-12-18T13:02:30;26.30;;;12.33;;
10134;SDS011;5107;48.850;8.924;2022-12-18T13:05:03;26.30;;;12.50;;
10134;SDS011;5107;48.850;8.924;2022-12-18T13:07:45;32.33;;;15.17;;
10134;SDS011;5107;48.850;8.924;2022-12-18T13:10:34;26.77;;;12.03;;
10134;SDS011;5107;48.850;8.924;2022-12-18T13:13:03;25.77;;;12.53;;
10134;SDS011;5107;48.850;8.924;2022-12-18T13:15:37;28.40;;;12.57;;
10134;SDS011;5107;48.850;8.924;2022-12-18T13:18:16;29.40;;;14.07;;
10134;SDS011;5107;48.850;8.924;2022-12-18T13:20:48;31.60;;;13.83;;
10134;SDS011;5107;48.850;8.924;2022-12-18T13:23:33;29.43;;;15.57;;
10134;SDS011;5107;48.850;8.924;2022-12-18T13:26:32;29.83;;;15.03;;
10134;SDS011;5107;48.850;8.924;2022-12-18T13:29:00;29.03;;;13.93;;
10134;SDS011;5107;48.850;8.924;2022-12-18T13:34:45;29.50;;;13.87;;
10134;SDS011;5107;48.850;8.924;2022-12-18T13:46:21;27.07;;;13.23;;
10134;SDS011;5107;48.850;8.924;2022-12-18T13:48:57;28.80;;;13.23;;
10134;SDS011;5107;48.850;8.924;2022-12-18T13:51:28;28.27;;;13.60;;
10134;SDS011;5107;48.850;8.924;2022-12-18T13:53:59;30.23;;;13.73;;
10134;SDS011;5107;48.850;8.924;2022-12-18T13:56:32;28.40;;;14.60;;
10134;SDS011;5107;48.850;8.924;2022-12-18T14:01:50;29.90;;;14.43;;
10134;SDS011;5107;48.850;8.924;2022-12-18T14:04:24;29.73;;;13.90;;
10134;SDS011;5107;48.850;8.924;2022-12-18T14:06:55;35.17;;;17.33;;
10134;SDS011;5107;48.850;8.924;2022-12-18T14:09:28;29.53;;;14.50;;
10134;SDS011;5107;48.850;8.924;2022-12-18T14:12:01;35.83;;;13.43;;
10134;SDS011;5107;48.850;8.924;2022-12-18T14:14:48;33.90;;;16.30;;
10134;SDS011;5107;48.850;8.924;2022-12-18T14:17:18;33.37;;;15.23;;
10134;SDS011;5107;48.850;8.924;2022-12-18T14:19:46;32.67;;;16.30;;
10134;SDS011;5107;48.850;8.924;2022-12-18T14:22:17;30.20;;;16.03;;
10134;SDS011;5107;48.850;8.924;2022-12-18T14:24:46;32.17;;;15.33;;
10134;SDS011;5107;48.850;8.924;2022-12-18T14:27:30;29.47;;;14.10;;
10134;SDS011;5107;48.850;8.924;2022-12-18T14:29:59;40.10;;;16.17;;
10134;SDS011;5107;48.850;8.924;2022-12-18T14:32:26;33.80;;;14.50;;
10134;SDS011;5107;48.850;8.924;2022-12-18T14:34:53;35.67;;;15.17;;
10134;SDS011;5107;48.850;8.924;2022-12-18T14:37:21;35.40;;;14.60;;
10134;SDS011;5107;48.850;8.924;2022-12-18T14:39:54;31.53;;;14.23;;
10134;SDS011;5107;48.850;8.924;2022-12-18T14:42:23;32.57;;;14.47;;
10134;SDS011;5107;48.850;8.924;2022-12-18T14:48:06;109.40;;;46.10;;
10134;SDS011;5107;48.850;8.924;2022-12-18T14:50:35;105.47;;;45.57;;
10134;SDS011;5107;48.850;8.924;2022-12-18T14:53:02;91.27;;;45.37;;
10134;SDS011;5107;48.850;8.924;2022-12-18T14:55:29;45.90;;;22.93;;
10134;SDS011;5107;48.850;8.924;2022-12-18T14:57:57;43.93;;;20.43;;
10134;SDS011;5107;48.850;8.924;2022-12-18T15:00:25;38.37;;;18.23;;
10134;SDS011;5107;48.850;8.924;2022-12-18T15:02:54;35.33;;;16.83;;
10134;SDS011;5107;48.850;8.924;2022-12-18T15:05:25;34.50;;;15.50;;
10134;SDS011;5107;48.850;8.924;2022-12-18T15:07:54;33.20;;;15.37;;
10134;SDS011;5107;48.850;8.924;2022-12-18T15:10:25;37.43;;;15.70;;
10134;SDS011;5107;48.850;8.924;2022-12-18T15:13:06;37.80;;;15.93;;
10134;SDS011;5107;48.850;8.924;2022-12-18T15:15:47;34.47;;;15.70;;
10134;SDS011;5107;48.850;8.924;2022-12-18T15:18:17;37.17;;;14.73;;
10134;SDS011;5107;48.850;8.924;2022-12-18T15:20:47;36.63;;;15.13;;
10134;SDS011;5107;48.850;8.924;2022-12-18T15:23:17;30.27;;;14.37;;